sensor_id;sensor_type;location;lat;lon;timestamp;temperature;humidity
15656;DHT22;7928;43.614;1.456;2024-02-26T00:02:20;8.60;99.90
15656;DHT22;7928;43.614;1.456;2024-02-26T00:04:47;8.70;99.90
15656;DHT22;7928;43.614;1.456;2024-02-26T00:07:14;8.60;99.90
15656;DHT22;7928;43.614;1.456;2024-02-26T00:09:41;8.60;99.90
15656;DHT22;7928;43.614;1.456;2024-02-26T00:12:09;8.60;99.90
15656;DHT22;7928;43.614;1.456;2024-02-26T00:14:36;8.70;99.90
15656;DHT22;7928;43.614;1.456;2024-02-26T00:17:03;8.70;99.90
15656;DHT22;7928;43.614;1.456;2024-02-26T00:19:32;8.70;99.90
15656;DHT22;7928;43.614;1.456;2024-02-26T00:21:59;8.70;99.90
15656;DHT22;7928;43.614;1.456;2024-02-26T00:24:26;8.70;99.90
15656;DHT22;7928;43.614;1.456;2024-02-26T00:26:53;8.70;99.90
15656;DHT22;7928;43.614;1.456;2024-02-26T00:29:21;8.60;99.90
15656;DHT22;7928;43.614;1.456;2024-02-26T00:31:49;8.60;99.90
15656;DHT22;7928;43.614;1.456;2024-02-26T00:34:16;8.60;99.90
15656;DHT22;7928;43.614;1.456;2024-02-26T00:36:44;8.60;99.90
15656;DHT22;7928;43.614;1.456;2024-02-26T00:39:11;8.50;99.90
15656;DHT22;7928;43.614;1.456;2024-02-26T00:41:40;8.50;99.90
15656;DHT22;7928;43.614;1.456;2024-02-26T00:44:07;8.50;99.90
15656;DHT22;7928;43.614;1.456;2024-02-26T00:46:34;8.60;99.90
15656;DHT22;7928;43.614;1.456;2024-02-26T00:49:01;8.70;99.90
15656;DHT22;7928;43.614;1.456;2024-02-26T00:51:28;8.80;99.90
15656;DHT22;7928;43.614;1.456;2024-02-26T00:53:57;8.80;99.90
15656;DHT22;7928;43.614;1.456;2024-02-26T00:56:24;8.80;99.90
15656;DHT22;7928;43.614;1.456;2024-02-26T00:58:51;8.80;99.90
15656;DHT22;7928;43.614;1.456;2024-02-26T01:01:18;8.80;99.90
15656;DHT22;7928;43.614;1.456;2024-02-26T01:03:45;8.70;99.90
15656;DHT22;7928;43.614;1.456;2024-02-26T01:06:12;8.70;99.90
15656;DHT22;7928;43.614;1.456;2024-02-26T01:08:39;8.60;99.90
15656;DHT22;7928;43.614;1.456;2024-02-26T01:11:09;8.60;99.90
15656;DHT22;7928;43.614;1.456;2024-02-26T01:13:36;8.50;99.90
15656;DHT22;7928;43.614;1.456;2024-02-26T01:16:04;8.50;99.90
15656;DHT22;7928;43.614;1.456;2024-02-26T01:18:31;8.50;99.90
15656;DHT22;7928;43.614;1.456;2024-02-26T01:20:58;8.40;99.90
15656;DHT22;7928;43.614;1.456;2024-02-26T01:23:25;8.40;99.90
15656;DHT22;7928;43.614;1.456;2024-02-26T01:25:53;8.40;99.90
15656;DHT22;7928;43.614;1.456;2024-02-26T01:28:21;8.40;99.90
15656;DHT22;7928;43.614;1.456;2024-02-26T01:30:48;8.40;99.90
15656;DHT22;7928;43.614;1.456;2024-02-26T01:33:15;8.40;99.90
15656;DHT22;7928;43.614;1.456;2024-02-26T01:35:43;8.40;99.90
15656;DHT22;7928;43.614;1.456;2024-02-26T01:38:10;8.30;99.90
15656;DHT22;7928;43.614;1.456;2024-02-26T01:40:37;8.30;99.90
15656;DHT22;7928;43.614;1.456;2024-02-26T01:43:04;8.30;99.90
15656;DHT22;7928;43.614;1.456;2024-02-26T01:45:33;8.30;99.90
15656;DHT22;7928;43.614;1.456;2024-02-26T01:48:00;8.20;99.90
15656;DHT22;7928;43.614;1.456;2024-02-26T01:50:29;8.10;99.90
15656;DHT22;7928;43.614;1.456;2024-02-26T01:52:56;8.10;99.90
15656;DHT22;7928;43.614;1.456;2024-02-26T01:55:25;8.10;99.90
15656;DHT22;7928;43.614;1.456;2024-02-26T01:57:53;8.10;99.90
15656;DHT22;7928;43.614;1.456;2024-02-26T02:00:21;8.10;99.90
15656;DHT22;7928;43.614;1.456;2024-02-26T02:02:50;8.00;99.90
15656;DHT22;7928;43.614;1.456;2024-02-26T02:05:20;8.00;99.90
15656;DHT22;7928;43.614;1.456;2024-02-26T02:07:47;7.90;99.90
15656;DHT22;7928;43.614;1.456;2024-02-26T02:10:15;8.00;99.90
15656;DHT22;7928;43.614;1.456;2024-02-26T02:12:43;7.90;99.90
15656;DHT22;7928;43.614;1.456;2024-02-26T02:15:10;7.90;99.90
15656;DHT22;7928;43.614;1.456;2024-02-26T02:17:37;7.90;99.90
15656;DHT22;7928;43.614;1.456;2024-02-26T02:20:14;7.90;99.90
15656;DHT22;7928;43.614;1.456;2024-02-26T02:22:43;7.90;99.90
15656;DHT22;7928;43.614;1.456;2024-02-26T02:25:10;8.00;99.90
15656;DHT22;7928;43.614;1.456;2024-02-26T02:27:38;7.90;99.90
15656;DHT22;7928;43.614;1.456;2024-02-26T02:30:07;7.90;99.90
15656;DHT22;7928;43.614;1.456;2024-02-26T02:32:34;7.90;99.90
15656;DHT22;7928;43.614;1.456;2024-02-26T02:35:02;7.90;99.90
15656;DHT22;7928;43.614;1.456;2024-02-26T02:37:29;8.00;99.90
15656;DHT22;7928;43.614;1.456;2024-02-26T02:39:58;8.00;99.90
15656;DHT22;7928;43.614;1.456;2024-02-26T02:42:26;8.00;99.90
15656;DHT22;7928;43.614;1.456;2024-02-26T02:44:53;8.00;99.90
15656;DHT22;7928;43.614;1.456;2024-02-26T02:47:20;8.00;99.90
15656;DHT22;7928;43.614;1.456;2024-02-26T02:49:47;8.10;99.90
15656;DHT22;7928;43.614;1.456;2024-02-26T02:52:14;8.10;99.90
15656;DHT22;7928;43.614;1.456;2024-02-26T02:54:41;8.10;99.90
15656;DHT22;7928;43.614;1.456;2024-02-26T02:57:09;8.10;99.90
15656;DHT22;7928;43.614;1.456;2024-02-26T02:59:37;8.20;99.90
15656;DHT22;7928;43.614;1.456;2024-02-26T03:02:04;8.20;99.90
15656;DHT22;7928;43.614;1.456;2024-02-26T03:04:32;8.20;99.90
15656;DHT22;7928;43.614;1.456;2024-02-26T03:06:59;8.20;99.90
15656;DHT22;7928;43.614;1.456;2024-02-26T03:09:26;8.20;99.90
15656;DHT22;7928;43.614;1.456;2024-02-26T03:11:54;8.50;99.90
15656;DHT22;7928;43.614;1.456;2024-02-26T03:14:22;8.60;99.90
15656;DHT22;7928;43.614;1.456;2024-02-26T03:16:53;8.70;99.90
15656;DHT22;7928;43.614;1.456;2024-02-26T03:19:20;8.80;99.90
15656;DHT22;7928;43.614;1.456;2024-02-26T03:21:47;8.90;99.90
15656;DHT22;7928;43.614;1.456;2024-02-26T03:24:14;8.90;99.90
15656;DHT22;7928;43.614;1.456;2024-02-26T03:26:41;8.80;99.90
15656;DHT22;7928;43.614;1.456;2024-02-26T03:29:08;8.80;99.90
15656;DHT22;7928;43.614;1.456;2024-02-26T03:31:37;8.80;99.90
15656;DHT22;7928;43.614;1.456;2024-02-26T03:34:04;8.80;99.90
15656;DHT22;7928;43.614;1.456;2024-02-26T03:36:31;8.90;99.90
15656;DHT22;7928;43.614;1.456;2024-02-26T03:38:59;8.90;99.90
15656;DHT22;7928;43.614;1.456;2024-02-26T03:41:26;8.90;99.90
15656;DHT22;7928;43.614;1.456;2024-02-26T03:43:53;8.90;99.90
15656;DHT22;7928;43.614;1.456;2024-02-26T03:46:20;9.00;99.90
15656;DHT22;7928;43.614;1.456;2024-02-26T03:48:48;9.00;99.90
15656;DHT22;7928;43.614;1.456;2024-02-26T03:51:15;9.10;99.90
15656;DHT22;7928;43.614;1.456;2024-02-26T03:53:42;9.10;99.90
15656;DHT22;7928;43.614;1.456;2024-02-26T03:56:11;9.30;99.90
15656;DHT22;7928;43.614;1.456;2024-02-26T03:58:38;9.30;99.90
15656;DHT22;7928;43.614;1.456;2024-02-26T04:01:07;9.20;99.90
15656;DHT22;7928;43.614;1.456;2024-02-26T04:03:36;9.10;99.90
15656;DHT22;7928;43.614;1.456;2024-02-26T04:06:07;9.00;99.90
15656;DHT22;7928;43.614;1.456;2024-02-26T04:08:35;9.10;99.90
15656;DHT22;7928;43.614;1.456;2024-02-26T04:11:02;9.30;99.90
15656;DHT22;7928;43.614;1.456;2024-02-26T04:13:32;9.30;99.90
15656;DHT22;7928;43.614;1.456;2024-02-26T04:16:00;9.50;99.90
15656;DHT22;7928;43.614;1.456;2024-02-26T04:18:28;9.50;99.90
15656;DHT22;7928;43.614;1.456;2024-02-26T04:20:55;9.50;99.90
15656;DHT22;7928;43.614;1.456;2024-02-26T04:23:24;9.50;99.90
15656;DHT22;7928;43.614;1.456;2024-02-26T04:25:51;9.50;99.90
15656;DHT22;7928;43.614;1.456;2024-02-26T04:28:19;9.60;99.90
15656;DHT22;7928;43.614;1.456;2024-02-26T04:30:47;9.50;99.90
15656;DHT22;7928;43.614;1.456;2024-02-26T04:33:14;9.60;99.90
15656;DHT22;7928;43.614;1.456;2024-02-26T04:35:42;9.50;99.90
15656;DHT22;7928;43.614;1.456;2024-02-26T04:38:09;9.60;99.90
15656;DHT22;7928;43.614;1.456;2024-02-26T04:40:38;9.70;99.90
15656;DHT22;7928;43.614;1.456;2024-02-26T04:43:05;9.60;99.90
15656;DHT22;7928;43.614;1.456;2024-02-26T04:45:32;9.60;99.90
15656;DHT22;7928;43.614;1.456;2024-02-26T04:47:59;9.60;99.90
15656;DHT22;7928;43.614;1.456;2024-02-26T04:50:26;9.80;99.90
15656;DHT22;7928;43.614;1.456;2024-02-26T04:52:54;9.80;99.90
15656;DHT22;7928;43.614;1.456;2024-02-26T04:55:21;9.80;99.90
15656;DHT22;7928;43.614;1.456;2024-02-26T04:57:49;9.90;99.90
15656;DHT22;7928;43.614;1.456;2024-02-26T05:00:17;9.90;99.90
15656;DHT22;7928;43.614;1.456;2024-02-26T05:02:47;10.00;99.90
15656;DHT22;7928;43.614;1.456;2024-02-26T05:05:14;10.00;99.90
15656;DHT22;7928;43.614;1.456;2024-02-26T05:07:41;9.90;99.90
15656;DHT22;7928;43.614;1.456;2024-02-26T05:10:09;9.80;99.90
15656;DHT22;7928;43.614;1.456;2024-02-26T05:12:36;9.80;99.90
15656;DHT22;7928;43.614;1.456;2024-02-26T05:15:06;9.80;99.90
15656;DHT22;7928;43.614;1.456;2024-02-26T05:17:34;9.70;99.90
15656;DHT22;7928;43.614;1.456;2024-02-26T05:20:01;9.70;99.90
15656;DHT22;7928;43.614;1.456;2024-02-26T05:22:28;9.60;99.90
15656;DHT22;7928;43.614;1.456;2024-02-26T05:24:55;9.60;99.90
15656;DHT22;7928;43.614;1.456;2024-02-26T05:27:22;9.70;99.90
15656;DHT22;7928;43.614;1.456;2024-02-26T05:29:49;9.70;99.90
15656;DHT22;7928;43.614;1.456;2024-02-26T05:32:19;9.60;99.90
15656;DHT22;7928;43.614;1.456;2024-02-26T05:34:46;9.60;99.90
15656;DHT22;7928;43.614;1.456;2024-02-26T05:37:13;9.50;99.90
15656;DHT22;7928;43.614;1.456;2024-02-26T05:39:40;9.40;99.90
15656;DHT22;7928;43.614;1.456;2024-02-26T05:42:07;9.40;99.90
15656;DHT22;7928;43.614;1.456;2024-02-26T05:44:35;9.40;99.90
15656;DHT22;7928;43.614;1.456;2024-02-26T05:47:03;9.30;99.90
15656;DHT22;7928;43.614;1.456;2024-02-26T05:49:31;9.30;99.90
15656;DHT22;7928;43.614;1.456;2024-02-26T05:51:59;9.30;99.90
15656;DHT22;7928;43.614;1.456;2024-02-26T05:54:26;9.40;99.90
15656;DHT22;7928;43.614;1.456;2024-02-26T05:56:54;9.40;99.90
15656;DHT22;7928;43.614;1.456;2024-02-26T05:59:21;9.30;99.90
15656;DHT22;7928;43.614;1.456;2024-02-26T06:01:48;9.30;99.90
15656;DHT22;7928;43.614;1.456;2024-02-26T06:04:15;9.30;99.90
15656;DHT22;7928;43.614;1.456;2024-02-26T06:06:45;9.30;99.90
15656;DHT22;7928;43.614;1.456;2024-02-26T06:09:15;9.20;99.90
15656;DHT22;7928;43.614;1.456;2024-02-26T06:11:42;9.10;99.90
15656;DHT22;7928;43.614;1.456;2024-02-26T06:14:09;9.10;99.90
15656;DHT22;7928;43.614;1.456;2024-02-26T06:16:38;9.10;99.90
15656;DHT22;7928;43.614;1.456;2024-02-26T06:19:05;9.10;99.90
15656;DHT22;7928;43.614;1.456;2024-02-26T06:21:33;9.10;99.90
15656;DHT22;7928;43.614;1.456;2024-02-26T06:24:02;9.10;99.90
15656;DHT22;7928;43.614;1.456;2024-02-26T06:26:29;9.00;99.90
15656;DHT22;7928;43.614;1.456;2024-02-26T06:28:58;9.00;99.90
15656;DHT22;7928;43.614;1.456;2024-02-26T06:31:27;9.00;99.90
15656;DHT22;7928;43.614;1.456;2024-02-26T06:33:55;9.00;99.90
15656;DHT22;7928;43.614;1.456;2024-02-26T06:36:23;9.10;99.90
15656;DHT22;7928;43.614;1.456;2024-02-26T06:38:51;9.10;99.90
15656;DHT22;7928;43.614;1.456;2024-02-26T06:41:21;9.10;99.90
15656;DHT22;7928;43.614;1.456;2024-02-26T06:43:52;9.10;99.90
15656;DHT22;7928;43.614;1.456;2024-02-26T06:46:20;9.10;99.90
15656;DHT22;7928;43.614;1.456;2024-02-26T06:48:48;9.10;99.90
15656;DHT22;7928;43.614;1.456;2024-02-26T06:51:15;9.20;99.90
15656;DHT22;7928;43.614;1.456;2024-02-26T06:53:42;9.20;99.90
15656;DHT22;7928;43.614;1.456;2024-02-26T06:56:10;9.20;99.90
15656;DHT22;7928;43.614;1.456;2024-02-26T06:58:38;9.20;99.90
15656;DHT22;7928;43.614;1.456;2024-02-26T07:01:06;9.20;99.90
15656;DHT22;7928;43.614;1.456;2024-02-26T07:03:34;9.20;99.90
15656;DHT22;7928;43.614;1.456;2024-02-26T07:06:00;9.20;99.90
15656;DHT22;7928;43.614;1.456;2024-02-26T07:08:27;9.30;99.90
15656;DHT22;7928;43.614;1.456;2024-02-26T07:10:54;9.40;99.90
15656;DHT22;7928;43.614;1.456;2024-02-26T07:13:21;9.50;99.90
15656;DHT22;7928;43.614;1.456;2024-02-26T07:15:50;9.50;99.90
15656;DHT22;7928;43.614;1.456;2024-02-26T07:18:17;9.50;99.90
15656;DHT22;7928;43.614;1.456;2024-02-26T07:20:44;9.50;99.90
15656;DHT22;7928;43.614;1.456;2024-02-26T07:23:11;9.50;99.90
15656;DHT22;7928;43.614;1.456;2024-02-26T07:25:38;9.50;99.90
15656;DHT22;7928;43.614;1.456;2024-02-26T07:28:06;9.50;99.90
15656;DHT22;7928;43.614;1.456;2024-02-26T07:30:33;9.50;99.90
15656;DHT22;7928;43.614;1.456;2024-02-26T07:33:02;9.60;99.90
15656;DHT22;7928;43.614;1.456;2024-02-26T07:35:29;9.60;99.90
15656;DHT22;7928;43.614;1.456;2024-02-26T07:37:56;9.60;99.90
15656;DHT22;7928;43.614;1.456;2024-02-26T07:40:23;9.70;99.90
15656;DHT22;7928;43.614;1.456;2024-02-26T07:42:51;9.70;99.90
15656;DHT22;7928;43.614;1.456;2024-02-26T07:45:18;9.70;99.90
15656;DHT22;7928;43.614;1.456;2024-02-26T07:47:46;9.70;99.90
15656;DHT22;7928;43.614;1.456;2024-02-26T07:50:15;9.80;99.90
15656;DHT22;7928;43.614;1.456;2024-02-26T07:52:42;9.80;99.90
15656;DHT22;7928;43.614;1.456;2024-02-26T07:55:09;9.80;99.90
15656;DHT22;7928;43.614;1.456;2024-02-26T07:57:36;9.90;99.90
15656;DHT22;7928;43.614;1.456;2024-02-26T08:00:05;9.90;99.90
15656;DHT22;7928;43.614;1.456;2024-02-26T08:02:34;9.90;99.90
15656;DHT22;7928;43.614;1.456;2024-02-26T08:05:02;10.00;99.90
15656;DHT22;7928;43.614;1.456;2024-02-26T08:07:30;10.10;99.90
15656;DHT22;7928;43.614;1.456;2024-02-26T08:09:57;10.10;99.90
15656;DHT22;7928;43.614;1.456;2024-02-26T08:12:24;10.20;99.90
15656;DHT22;7928;43.614;1.456;2024-02-26T08:14:51;10.10;99.90
15656;DHT22;7928;43.614;1.456;2024-02-26T08:17:18;10.20;99.90
15656;DHT22;7928;43.614;1.456;2024-02-26T08:19:45;10.20;99.90
15656;DHT22;7928;43.614;1.456;2024-02-26T08:22:12;10.20;99.90
15656;DHT22;7928;43.614;1.456;2024-02-26T08:24:43;10.30;99.90
15656;DHT22;7928;43.614;1.456;2024-02-26T08:27:10;10.40;99.90
15656;DHT22;7928;43.614;1.456;2024-02-26T08:29:37;10.40;99.90
15656;DHT22;7928;43.614;1.456;2024-02-26T08:32:05;10.40;99.90
15656;DHT22;7928;43.614;1.456;2024-02-26T08:34:32;10.50;99.90
15656;DHT22;7928;43.614;1.456;2024-02-26T08:36:59;10.50;99.90
15656;DHT22;7928;43.614;1.456;2024-02-26T08:39:26;10.60;99.90
15656;DHT22;7928;43.614;1.456;2024-02-26T08:41:55;10.60;99.90
15656;DHT22;7928;43.614;1.456;2024-02-26T08:44:22;10.60;99.90
15656;DHT22;7928;43.614;1.456;2024-02-26T08:46:49;10.70;99.90
15656;DHT22;7928;43.614;1.456;2024-02-26T08:49:16;10.70;99.90
15656;DHT22;7928;43.614;1.456;2024-02-26T08:51:43;10.70;99.90
15656;DHT22;7928;43.614;1.456;2024-02-26T08:54:12;10.70;99.90
15656;DHT22;7928;43.614;1.456;2024-02-26T08:56:39;10.70;99.90
15656;DHT22;7928;43.614;1.456;2024-02-26T08:59:08;10.80;99.90
15656;DHT22;7928;43.614;1.456;2024-02-26T09:01:35;10.90;99.90
15656;DHT22;7928;43.614;1.456;2024-02-26T09:04:03;11.00;99.90
15656;DHT22;7928;43.614;1.456;2024-02-26T09:06:29;11.00;99.90
15656;DHT22;7928;43.614;1.456;2024-02-26T09:08:56;11.10;99.90
15656;DHT22;7928;43.614;1.456;2024-02-26T09:11:23;11.10;99.90
15656;DHT22;7928;43.614;1.456;2024-02-26T09:13:50;11.20;99.90
15656;DHT22;7928;43.614;1.456;2024-02-26T09:16:19;11.30;99.90
15656;DHT22;7928;43.614;1.456;2024-02-26T09:18:46;11.40;99.90
15656;DHT22;7928;43.614;1.456;2024-02-26T09:21:13;11.60;99.90
15656;DHT22;7928;43.614;1.456;2024-02-26T09:23:41;11.80;99.90
15656;DHT22;7928;43.614;1.456;2024-02-26T09:26:08;12.00;99.90
15656;DHT22;7928;43.614;1.456;2024-02-26T09:28:35;12.30;99.90
15656;DHT22;7928;43.614;1.456;2024-02-26T09:31:03;12.40;99.90
15656;DHT22;7928;43.614;1.456;2024-02-26T09:33:32;12.20;99.90
15656;DHT22;7928;43.614;1.456;2024-02-26T09:35:59;12.10;99.90
15656;DHT22;7928;43.614;1.456;2024-02-26T09:38:26;12.10;99.90
15656;DHT22;7928;43.614;1.456;2024-02-26T09:40:53;12.20;99.90
15656;DHT22;7928;43.614;1.456;2024-02-26T09:43:22;12.10;99.90
15656;DHT22;7928;43.614;1.456;2024-02-26T09:45:50;12.20;99.90
15656;DHT22;7928;43.614;1.456;2024-02-26T09:48:17;12.30;99.90
15656;DHT22;7928;43.614;1.456;2024-02-26T09:50:46;12.50;99.90
15656;DHT22;7928;43.614;1.456;2024-02-26T09:53:13;12.40;99.90
15656;DHT22;7928;43.614;1.456;2024-02-26T09:55:41;12.50;99.90
15656;DHT22;7928;43.614;1.456;2024-02-26T09:58:09;12.60;99.90
15656;DHT22;7928;43.614;1.456;2024-02-26T10:00:43;12.70;99.90
15656;DHT22;7928;43.614;1.456;2024-02-26T10:03:13;12.80;99.90
15656;DHT22;7928;43.614;1.456;2024-02-26T10:05:42;13.00;99.90
15656;DHT22;7928;43.614;1.456;2024-02-26T10:08:11;13.60;99.90
15656;DHT22;7928;43.614;1.456;2024-02-26T10:10:39;13.80;99.90
15656;DHT22;7928;43.614;1.456;2024-02-26T10:13:07;13.90;99.90
15656;DHT22;7928;43.614;1.456;2024-02-26T10:15:37;14.00;99.90
15656;DHT22;7928;43.614;1.456;2024-02-26T10:18:04;14.00;99.90
15656;DHT22;7928;43.614;1.456;2024-02-26T10:20:31;14.30;99.90
15656;DHT22;7928;43.614;1.456;2024-02-26T10:22:59;14.10;99.90
15656;DHT22;7928;43.614;1.456;2024-02-26T10:25:30;13.90;99.90
15656;DHT22;7928;43.614;1.456;2024-02-26T10:28:00;14.30;99.90
15656;DHT22;7928;43.614;1.456;2024-02-26T10:30:28;14.70;99.90
15656;DHT22;7928;43.614;1.456;2024-02-26T10:32:56;15.50;99.90
15656;DHT22;7928;43.614;1.456;2024-02-26T10:35:23;15.20;99.90
15656;DHT22;7928;43.614;1.456;2024-02-26T10:37:50;15.30;99.90
15656;DHT22;7928;43.614;1.456;2024-02-26T10:40:18;15.40;99.90
15656;DHT22;7928;43.614;1.456;2024-02-26T10:42:46;17.80;99.90
15656;DHT22;7928;43.614;1.456;2024-02-26T10:45:13;20.30;99.90
15656;DHT22;7928;43.614;1.456;2024-02-26T10:47:41;20.40;99.90
15656;DHT22;7928;43.614;1.456;2024-02-26T10:50:09;20.90;99.90
15656;DHT22;7928;43.614;1.456;2024-02-26T10:52:36;20.90;99.90
15656;DHT22;7928;43.614;1.456;2024-02-26T10:55:05;20.70;99.90
15656;DHT22;7928;43.614;1.456;2024-02-26T10:57:40;21.40;99.90
15656;DHT22;7928;43.614;1.456;2024-02-26T11:00:13;20.00;99.90
15656;DHT22;7928;43.614;1.456;2024-02-26T11:02:41;19.40;99.90
15656;DHT22;7928;43.614;1.456;2024-02-26T11:05:08;19.10;99.90
15656;DHT22;7928;43.614;1.456;2024-02-26T11:07:35;20.30;99.90
15656;DHT22;7928;43.614;1.456;2024-02-26T11:10:04;21.00;99.90
15656;DHT22;7928;43.614;1.456;2024-02-26T11:12:33;19.70;99.90
15656;DHT22;7928;43.614;1.456;2024-02-26T11:15:03;19.50;99.90
15656;DHT22;7928;43.614;1.456;2024-02-26T11:17:32;20.80;99.90
15656;DHT22;7928;43.614;1.456;2024-02-26T11:20:00;20.60;99.90
15656;DHT22;7928;43.614;1.456;2024-02-26T11:22:28;19.70;99.90
15656;DHT22;7928;43.614;1.456;2024-02-26T11:24:56;21.60;99.20
15656;DHT22;7928;43.614;1.456;2024-02-26T11:27:29;21.50;98.00
15656;DHT22;7928;43.614;1.456;2024-02-26T11:29:59;21.30;97.80
15656;DHT22;7928;43.614;1.456;2024-02-26T11:32:28;18.80;99.90
15656;DHT22;7928;43.614;1.456;2024-02-26T11:34:58;18.70;99.90
15656;DHT22;7928;43.614;1.456;2024-02-26T11:37:25;18.60;99.90
15656;DHT22;7928;43.614;1.456;2024-02-26T11:39:52;18.90;99.90
15656;DHT22;7928;43.614;1.456;2024-02-26T11:42:23;17.60;99.90
15656;DHT22;7928;43.614;1.456;2024-02-26T11:44:50;17.10;99.90
15656;DHT22;7928;43.614;1.456;2024-02-26T11:47:19;17.20;99.90
15656;DHT22;7928;43.614;1.456;2024-02-26T11:49:46;17.50;99.90
15656;DHT22;7928;43.614;1.456;2024-02-26T11:52:15;17.30;99.90
15656;DHT22;7928;43.614;1.456;2024-02-26T11:54:47;16.90;99.90
15656;DHT22;7928;43.614;1.456;2024-02-26T11:57:24;16.90;99.90
15656;DHT22;7928;43.614;1.456;2024-02-26T11:59:52;17.80;99.90
15656;DHT22;7928;43.614;1.456;2024-02-26T12:02:42;19.10;99.90
15656;DHT22;7928;43.614;1.456;2024-02-26T12:05:12;19.10;99.90
15656;DHT22;7928;43.614;1.456;2024-02-26T12:07:43;19.90;99.90
15656;DHT22;7928;43.614;1.456;2024-02-26T12:10:16;19.20;99.30
15656;DHT22;7928;43.614;1.456;2024-02-26T12:12:45;18.20;99.90
15656;DHT22;7928;43.614;1.456;2024-02-26T12:15:15;17.90;99.90
15656;DHT22;7928;43.614;1.456;2024-02-26T12:17:48;17.90;99.90
15656;DHT22;7928;43.614;1.456;2024-02-26T12:20:17;16.90;99.90
15656;DHT22;7928;43.614;1.456;2024-02-26T12:22:47;16.40;99.90
15656;DHT22;7928;43.614;1.456;2024-02-26T12:25:15;16.50;99.90
15656;DHT22;7928;43.614;1.456;2024-02-26T12:27:42;17.10;99.90
15656;DHT22;7928;43.614;1.456;2024-02-26T12:30:10;17.40;99.90
15656;DHT22;7928;43.614;1.456;2024-02-26T12:32:38;17.80;99.90
15656;DHT22;7928;43.614;1.456;2024-02-26T12:35:06;17.50;99.90
15656;DHT22;7928;43.614;1.456;2024-02-26T12:37:34;17.30;99.90
15656;DHT22;7928;43.614;1.456;2024-02-26T12:40:06;16.80;99.90
15656;DHT22;7928;43.614;1.456;2024-02-26T12:42:35;16.50;99.90
15656;DHT22;7928;43.614;1.456;2024-02-26T12:45:06;18.50;99.90
15656;DHT22;7928;43.614;1.456;2024-02-26T12:47:38;20.70;99.60
15656;DHT22;7928;43.614;1.456;2024-02-26T12:50:06;21.00;99.10
15656;DHT22;7928;43.614;1.456;2024-02-26T12:52:33;20.70;99.90
15656;DHT22;7928;43.614;1.456;2024-02-26T12:55:02;20.10;98.70
15656;DHT22;7928;43.614;1.456;2024-02-26T12:57:31;19.70;99.40
15656;DHT22;7928;43.614;1.456;2024-02-26T13:00:00;20.70;99.90
15656;DHT22;7928;43.614;1.456;2024-02-26T13:02:27;20.20;99.00
15656;DHT22;7928;43.614;1.456;2024-02-26T13:04:55;20.90;98.40
15656;DHT22;7928;43.614;1.456;2024-02-26T13:07:22;22.30;99.70
15656;DHT22;7928;43.614;1.456;2024-02-26T13:09:50;21.70;96.60
15656;DHT22;7928;43.614;1.456;2024-02-26T13:12:18;21.20;96.80
15656;DHT22;7928;43.614;1.456;2024-02-26T13:14:47;22.40;95.40
15656;DHT22;7928;43.614;1.456;2024-02-26T13:17:14;22.90;95.90
15656;DHT22;7928;43.614;1.456;2024-02-26T13:19:51;22.90;94.80
15656;DHT22;7928;43.614;1.456;2024-02-26T13:22:21;20.60;96.50
15656;DHT22;7928;43.614;1.456;2024-02-26T13:24:53;21.00;96.50
15656;DHT22;7928;43.614;1.456;2024-02-26T13:27:22;21.50;95.00
15656;DHT22;7928;43.614;1.456;2024-02-26T13:30:04;22.30;94.60
15656;DHT22;7928;43.614;1.456;2024-02-26T13:32:33;23.40;93.30
15656;DHT22;7928;43.614;1.456;2024-02-26T13:35:07;23.70;92.50
15656;DHT22;7928;43.614;1.456;2024-02-26T13:37:35;23.90;92.30
15656;DHT22;7928;43.614;1.456;2024-02-26T13:40:05;22.90;92.20
15656;DHT22;7928;43.614;1.456;2024-02-26T13:42:32;22.50;93.20
15656;DHT22;7928;43.614;1.456;2024-02-26T13:44:59;23.30;93.20
15656;DHT22;7928;43.614;1.456;2024-02-26T13:47:28;23.90;92.40
15656;DHT22;7928;43.614;1.456;2024-02-26T13:49:54;23.70;91.70
15656;DHT22;7928;43.614;1.456;2024-02-26T13:52:22;24.60;92.10
15656;DHT22;7928;43.614;1.456;2024-02-26T13:54:49;24.10;90.10
15656;DHT22;7928;43.614;1.456;2024-02-26T13:57:16;23.70;90.20
15656;DHT22;7928;43.614;1.456;2024-02-26T13:59:44;24.40;90.60
15656;DHT22;7928;43.614;1.456;2024-02-26T14:02:11;24.20;90.00
15656;DHT22;7928;43.614;1.456;2024-02-26T14:04:39;24.00;89.00
15656;DHT22;7928;43.614;1.456;2024-02-26T14:07:08;24.50;89.60
15656;DHT22;7928;43.614;1.456;2024-02-26T14:09:35;24.40;90.00
15656;DHT22;7928;43.614;1.456;2024-02-26T14:12:03;24.50;89.70
15656;DHT22;7928;43.614;1.456;2024-02-26T14:14:30;24.90;89.60
15656;DHT22;7928;43.614;1.456;2024-02-26T14:17:00;24.80;86.30
15656;DHT22;7928;43.614;1.456;2024-02-26T14:19:29;24.60;86.10
15656;DHT22;7928;43.614;1.456;2024-02-26T14:21:57;25.00;84.50
15656;DHT22;7928;43.614;1.456;2024-02-26T14:24:24;24.70;85.70
15656;DHT22;7928;43.614;1.456;2024-02-26T14:26:51;24.90;84.90
15656;DHT22;7928;43.614;1.456;2024-02-26T14:29:19;23.80;86.30
15656;DHT22;7928;43.614;1.456;2024-02-26T14:31:46;25.20;85.00
15656;DHT22;7928;43.614;1.456;2024-02-26T14:34:13;26.50;85.00
15656;DHT22;7928;43.614;1.456;2024-02-26T14:36:40;26.50;84.10
15656;DHT22;7928;43.614;1.456;2024-02-26T14:39:09;26.80;85.20
15656;DHT22;7928;43.614;1.456;2024-02-26T14:41:38;25.20;82.80
15656;DHT22;7928;43.614;1.456;2024-02-26T14:44:05;22.70;87.60
15656;DHT22;7928;43.614;1.456;2024-02-26T14:46:32;23.00;87.10
15656;DHT22;7928;43.614;1.456;2024-02-26T14:48:59;23.60;85.00
15656;DHT22;7928;43.614;1.456;2024-02-26T14:51:26;24.50;86.70
15656;DHT22;7928;43.614;1.456;2024-02-26T14:53:53;25.40;84.50
15656;DHT22;7928;43.614;1.456;2024-02-26T14:56:21;23.60;84.90
15656;DHT22;7928;43.614;1.456;2024-02-26T14:58:51;22.10;87.80
15656;DHT22;7928;43.614;1.456;2024-02-26T15:01:18;23.90;85.40
15656;DHT22;7928;43.614;1.456;2024-02-26T15:03:45;24.40;84.30
15656;DHT22;7928;43.614;1.456;2024-02-26T15:06:13;25.30;84.40
15656;DHT22;7928;43.614;1.456;2024-02-26T15:08:40;25.70;82.10
15656;DHT22;7928;43.614;1.456;2024-02-26T15:11:07;25.70;81.50
15656;DHT22;7928;43.614;1.456;2024-02-26T15:13:35;25.60;82.00
15656;DHT22;7928;43.614;1.456;2024-02-26T15:16:03;26.20;81.70
15656;DHT22;7928;43.614;1.456;2024-02-26T15:18:30;26.90;81.50
15656;DHT22;7928;43.614;1.456;2024-02-26T15:20:57;28.00;79.80
15656;DHT22;7928;43.614;1.456;2024-02-26T15:23:24;26.80;80.80
15656;DHT22;7928;43.614;1.456;2024-02-26T15:25:53;23.30;81.80
15656;DHT22;7928;43.614;1.456;2024-02-26T15:28:20;21.60;86.90
15656;DHT22;7928;43.614;1.456;2024-02-26T15:30:49;23.80;85.70
15656;DHT22;7928;43.614;1.456;2024-02-26T15:33:16;24.90;83.10
15656;DHT22;7928;43.614;1.456;2024-02-26T15:35:43;25.10;83.50
15656;DHT22;7928;43.614;1.456;2024-02-26T15:38:11;25.50;81.30
15656;DHT22;7928;43.614;1.456;2024-02-26T15:40:39;25.00;81.70
15656;DHT22;7928;43.614;1.456;2024-02-26T15:43:06;24.50;81.80
15656;DHT22;7928;43.614;1.456;2024-02-26T15:45:32;24.80;84.70
15656;DHT22;7928;43.614;1.456;2024-02-26T15:48:01;24.90;81.30
15656;DHT22;7928;43.614;1.456;2024-02-26T15:50:28;21.60;86.90
15656;DHT22;7928;43.614;1.456;2024-02-26T15:52:55;20.30;90.10
15656;DHT22;7928;43.614;1.456;2024-02-26T15:55:23;20.60;91.40
15656;DHT22;7928;43.614;1.456;2024-02-26T15:57:50;19.40;91.60
15656;DHT22;7928;43.614;1.456;2024-02-26T16:00:18;18.30;93.20